sensor_id;sensor_type;location;lat;lon;timestamp;pressure;altitude;pressure_sealevel;temperature
76381;BMP280;65202;52.520;10.528;2023-04-22T00:01:22;100644.53;;;13.07
76381;BMP280;65202;52.520;10.528;2023-04-22T00:03:50;100647.09;;;13.08
76381;BMP280;65202;52.520;10.528;2023-04-22T00:06:18;100641.13;;;13.57
76381;BMP280;65202;52.520;10.528;2023-04-22T00:08:45;100640.00;;;13.22
76381;BMP280;65202;52.520;10.528;2023-04-22T00:11:13;100641.09;;;13.05
76381;BMP280;65202;52.520;10.528;2023-04-22T00:13:40;100631.00;;;13.03
76381;BMP280;65202;52.520;10.528;2023-04-22T00:16:07;100625.13;;;12.78
76381;BMP280;65202;52.520;10.528;2023-04-22T00:18:34;100627.31;;;13.19
76381;BMP280;65202;52.520;10.528;2023-04-22T00:21:03;100622.97;;;13.13
76381;BMP280;65202;52.520;10.528;2023-04-22T00:23:30;100616.56;;;12.96
76381;BMP280;65202;52.520;10.528;2023-04-22T00:25:58;100623.56;;;13.06
76381;BMP280;65202;52.520;10.528;2023-04-22T00:28:27;100621.28;;;13.14
76381;BMP280;65202;52.520;10.528;2023-04-22T00:30:54;100629.28;;;13.27
76381;BMP280;65202;52.520;10.528;2023-04-22T00:33:21;100619.13;;;12.98
76381;BMP280;65202;52.520;10.528;2023-04-22T00:35:48;100617.41;;;12.97
76381;BMP280;65202;52.520;10.528;2023-04-22T00:38:16;100609.69;;;12.67
76381;BMP280;65202;52.520;10.528;2023-04-22T00:40:43;100613.41;;;13.03
76381;BMP280;65202;52.520;10.528;2023-04-22T00:43:11;100613.41;;;13.03
76381;BMP280;65202;52.520;10.528;2023-04-22T00:45:39;100611.06;;;13.08
76381;BMP280;65202;52.520;10.528;2023-04-22T00:48:08;100613.34;;;12.77
76381;BMP280;65202;52.520;10.528;2023-04-22T00:50:35;100608.13;;;12.71
76381;BMP280;65202;52.520;10.528;2023-04-22T00:53:02;100598.06;;;12.71
76381;BMP280;65202;52.520;10.528;2023-04-22T00:55:30;100595.97;;;12.83
76381;BMP280;65202;52.520;10.528;2023-04-22T00:57:59;100602.00;;;12.63
76381;BMP280;65202;52.520;10.528;2023-04-22T01:00:28;100595.78;;;12.54
76381;BMP280;65202;52.520;10.528;2023-04-22T01:02:56;100593.94;;;12.48
76381;BMP280;65202;52.520;10.528;2023-04-22T01:05:24;100593.91;;;12.71
76381;BMP280;65202;52.520;10.528;2023-04-22T01:07:51;100594.66;;;12.69
76381;BMP280;65202;52.520;10.528;2023-04-22T01:10:19;100588.91;;;12.48
76381;BMP280;65202;52.520;10.528;2023-04-22T01:12:46;100598.81;;;12.20
76381;BMP280;65202;52.520;10.528;2023-04-22T01:15:13;100593.63;;;12.39
76381;BMP280;65202;52.520;10.528;2023-04-22T01:17:41;100584.13;;;12.54
76381;BMP280;65202;52.520;10.528;2023-04-22T01:20:08;100579.63;;;12.22
76381;BMP280;65202;52.520;10.528;2023-04-22T01:22:40;100582.41;;;12.53
76381;BMP280;65202;52.520;10.528;2023-04-22T01:25:09;100580.88;;;12.33
76381;BMP280;65202;52.520;10.528;2023-04-22T01:27:38;100575.53;;;12.48
76381;BMP280;65202;52.520;10.528;2023-04-22T01:30:07;100569.47;;;12.18
76381;BMP280;65202;52.520;10.528;2023-04-22T01:32:35;100567.91;;;12.21
76381;BMP280;65202;52.520;10.528;2023-04-22T01:35:03;100575.22;;;12.63
76381;BMP280;65202;52.520;10.528;2023-04-22T01:37:30;100584.50;;;12.41
76381;BMP280;65202;52.520;10.528;2023-04-22T01:39:57;100575.72;;;12.29
76381;BMP280;65202;52.520;10.528;2023-04-22T01:42:25;100577.94;;;12.21
76381;BMP280;65202;52.520;10.528;2023-04-22T01:44:52;100585.97;;;12.11
76381;BMP280;65202;52.520;10.528;2023-04-22T01:47:20;100574.56;;;12.44
76381;BMP280;65202;52.520;10.528;2023-04-22T01:49:47;100579.63;;;12.22
76381;BMP280;65202;52.520;10.528;2023-04-22T01:52:14;100582.44;;;11.85
76381;BMP280;65202;52.520;10.528;2023-04-22T01:54:42;100575.47;;;11.99
76381;BMP280;65202;52.520;10.528;2023-04-22T01:57:11;100570.59;;;12.02
76381;BMP280;65202;52.520;10.528;2023-04-22T01:59:40;100571.75;;;12.12
76381;BMP280;65202;52.520;10.528;2023-04-22T02:02:08;100577.19;;;12.00
76381;BMP280;65202;52.520;10.528;2023-04-22T02:04:35;100582.19;;;11.77
76381;BMP280;65202;52.520;10.528;2023-04-22T02:07:02;100571.38;;;12.01
76381;BMP280;65202;52.520;10.528;2023-04-22T02:09:31;100574.09;;;11.62
76381;BMP280;65202;52.520;10.528;2023-04-22T02:11:59;100577.81;;;11.72
76381;BMP280;65202;52.520;10.528;2023-04-22T02:14:27;100565.56;;;12.02
76381;BMP280;65202;52.520;10.528;2023-04-22T02:16:54;100564.31;;;11.92
76381;BMP280;65202;52.520;10.528;2023-04-22T02:19:21;100566.84;;;11.92
76381;BMP280;65202;52.520;10.528;2023-04-22T02:21:49;100559.78;;;11.82
76381;BMP280;65202;52.520;10.528;2023-04-22T02:24:16;100571.41;;;11.80
76381;BMP280;65202;52.520;10.528;2023-04-22T02:26:43;100570.97;;;11.68
76381;BMP280;65202;52.520;10.528;2023-04-22T02:29:12;100569.81;;;11.60
76381;BMP280;65202;52.520;10.528;2023-04-22T02:31:39;100574.41;;;11.49
76381;BMP280;65202;52.520;10.528;2023-04-22T02:34:07;100567.13;;;11.77
76381;BMP280;65202;52.520;10.528;2023-04-22T02:36:34;100568.84;;;11.78
76381;BMP280;65202;52.520;10.528;2023-04-22T02:39:02;100566.47;;;11.59
76381;BMP280;65202;52.520;10.528;2023-04-22T02:41:32;100556.41;;;11.37
76381;BMP280;65202;52.520;10.528;2023-04-22T02:43:59;100563.19;;;11.40
76381;BMP280;65202;52.520;10.528;2023-04-22T02:46:26;100560.31;;;11.31
76381;BMP280;65202;52.520;10.528;2023-04-22T02:48:53;100565.47;;;11.34
76381;BMP280;65202;52.520;10.528;2023-04-22T02:51:21;100547.22;;;11.16
76381;BMP280;65202;52.520;10.528;2023-04-22T02:53:49;100546.25;;;11.34
76381;BMP280;65202;52.520;10.528;2023-04-22T02:56:16;100547.69;;;11.28
76381;BMP280;65202;52.520;10.528;2023-04-22T02:58:44;100547.22;;;11.16
76381;BMP280;65202;52.520;10.528;2023-04-22T03:01:11;100541.09;;;11.30
76381;BMP280;65202;52.520;10.528;2023-04-22T03:03:38;100547.91;;;11.34
76381;BMP280;65202;52.520;10.528;2023-04-22T03:06:06;100544.41;;;11.51
76381;BMP280;65202;52.520;10.528;2023-04-22T03:08:33;100542.22;;;11.60
76381;BMP280;65202;52.520;10.528;2023-04-22T03:11:00;100553.38;;;11.24
76381;BMP280;65202;52.520;10.528;2023-04-22T03:13:28;100543.94;;;11.61
76381;BMP280;65202;52.520;10.528;2023-04-22T03:15:55;100541.16;;;11.53
76381;BMP280;65202;52.520;10.528;2023-04-22T03:18:22;100546.41;;;11.17
76381;BMP280;65202;52.520;10.528;2023-04-22T03:20:49;100538.75;;;11.34
76381;BMP280;65202;52.520;10.528;2023-04-22T03:23:16;100532.16;;;10.94
76381;BMP280;65202;52.520;10.528;2023-04-22T03:25:44;100523.50;;;11.08
76381;BMP280;65202;52.520;10.528;2023-04-22T03:28:11;100523.06;;;10.96
76381;BMP280;65202;52.520;10.528;2023-04-22T03:30:38;100516.34;;;11.17
76381;BMP280;65202;52.520;10.528;2023-04-22T03:33:05;100517.72;;;11.31
76381;BMP280;65202;52.520;10.528;2023-04-22T03:35:32;100509.94;;;10.81
76381;BMP280;65202;52.520;10.528;2023-04-22T03:38:00;100513.16;;;10.99
76381;BMP280;65202;52.520;10.528;2023-04-22T03:40:27;100519.81;;;10.99
76381;BMP280;65202;52.520;10.528;2023-04-22T03:42:54;100526.78;;;10.85
76381;BMP280;65202;52.520;10.528;2023-04-22T03:45:22;100532.84;;;11.12
76381;BMP280;65202;52.520;10.528;2023-04-22T03:47:49;100527.09;;;11.15
76381;BMP280;65202;52.520;10.528;2023-04-22T03:50:16;100521.34;;;10.95
76381;BMP280;65202;52.520;10.528;2023-04-22T03:52:43;100518.56;;;10.68
76381;BMP280;65202;52.520;10.528;2023-04-22T03:55:11;100521.44;;;10.76
76381;BMP280;65202;52.520;10.528;2023-04-22T03:57:38;100522.31;;;10.78
76381;BMP280;65202;52.520;10.528;2023-04-22T04:00:06;100522.59;;;10.64
76381;BMP280;65202;52.520;10.528;2023-04-22T04:02:34;100514.16;;;10.82
76381;BMP280;65202;52.520;10.528;2023-04-22T04:05:01;100518.25;;;10.80
76381;BMP280;65202;52.520;10.528;2023-04-22T04:07:29;100514.38;;;10.88
76381;BMP280;65202;52.520;10.528;2023-04-22T04:09:56;100515.03;;;10.63
76381;BMP280;65202;52.520;10.528;2023-04-22T04:12:23;100523.19;;;10.79
76381;BMP280;65202;52.520;10.528;2023-04-22T04:14:50;100508.72;;;10.92
76381;BMP280;65202;52.520;10.528;2023-04-22T04:17:18;100503.22;;;10.80
76381;BMP280;65202;52.520;10.528;2023-04-22T04:19:45;100511.16;;;10.70
76381;BMP280;65202;52.520;10.528;2023-04-22T04:22:12;100509.81;;;10.78
76381;BMP280;65202;52.520;10.528;2023-04-22T04:24:40;100518.25;;;11.02
76381;BMP280;65202;52.520;10.528;2023-04-22T04:27:08;100516.97;;;10.90
76381;BMP280;65202;52.520;10.528;2023-04-22T04:29:36;100513.56;;;10.68
76381;BMP280;65202;52.520;10.528;2023-04-22T04:32:04;100522.22;;;10.75
76381;BMP280;65202;52.520;10.528;2023-04-22T04:34:31;100523.22;;;10.59
76381;BMP280;65202;52.520;10.528;2023-04-22T04:37:00;100518.66;;;10.70
76381;BMP280;65202;52.520;10.528;2023-04-22T04:39:27;100509.16;;;10.82
76381;BMP280;65202;52.520;10.528;2023-04-22T04:41:54;100517.69;;;10.87
76381;BMP280;65202;52.520;10.528;2023-04-22T04:44:25;100522.28;;;10.57
76381;BMP280;65202;52.520;10.528;2023-04-22T04:46:53;100508.91;;;10.76
76381;BMP280;65202;52.520;10.528;2023-04-22T04:49:20;100513.84;;;10.55
76381;BMP280;65202;52.520;10.528;2023-04-22T04:51:48;100516.53;;;10.59
76381;BMP280;65202;52.520;10.528;2023-04-22T04:54:15;100514.03;;;10.79
76381;BMP280;65202;52.520;10.528;2023-04-22T04:56:43;100511.84;;;10.67
76381;BMP280;65202;52.520;10.528;2023-04-22T04:59:10;100511.41;;;10.76
76381;BMP280;65202;52.520;10.528;2023-04-22T05:01:37;100515.03;;;10.63
76381;BMP280;65202;52.520;10.528;2023-04-22T05:04:05;100515.34;;;10.92
76381;BMP280;65202;52.520;10.528;2023-04-22T05:06:32;100522.91;;;10.71
76381;BMP280;65202;52.520;10.528;2023-04-22T05:09:00;100518.94;;;10.98
76381;BMP280;65202;52.520;10.528;2023-04-22T05:11:27;100516.97;;;10.90
76381;BMP280;65202;52.520;10.528;2023-04-22T05:13:55;100517.31;;;10.78
76381;BMP280;65202;52.520;10.528;2023-04-22T05:16:22;100513.50;;;11.08
76381;BMP280;65202;52.520;10.528;2023-04-22T05:18:49;100513.47;;;11.29
76381;BMP280;65202;52.520;10.528;2023-04-22T05:21:16;100514.22;;;11.06
76381;BMP280;65202;52.520;10.528;2023-04-22T05:23:44;100509.94;;;11.24
76381;BMP280;65202;52.520;10.528;2023-04-22T05:26:11;100515.69;;;11.21
76381;BMP280;65202;52.520;10.528;2023-04-22T05:28:39;100509.53;;;11.35
76381;BMP280;65202;52.520;10.528;2023-04-22T05:31:06;100503.63;;;11.55
76381;BMP280;65202;52.520;10.528;2023-04-22T05:33:33;100505.03;;;11.70
76381;BMP280;65202;52.520;10.528;2023-04-22T05:36:01;100513.56;;;11.75
76381;BMP280;65202;52.520;10.528;2023-04-22T05:38:28;100507.59;;;11.72
76381;BMP280;65202;52.520;10.528;2023-04-22T05:40:55;100501.34;;;12.32
76381;BMP280;65202;52.520;10.528;2023-04-22T05:43:22;100496.13;;;12.01
76381;BMP280;65202;52.520;10.528;2023-04-22T05:45:49;100490.28;;;12.52
76381;BMP280;65202;52.520;10.528;2023-04-22T05:48:17;100496.44;;;13.13
76381;BMP280;65202;52.520;10.528;2023-04-22T05:50:44;100497.81;;;13.03
76381;BMP280;65202;52.520;10.528;2023-04-22T05:53:11;100496.97;;;13.03
76381;BMP280;65202;52.520;10.528;2023-04-22T05:55:38;100490.22;;;13.86
76381;BMP280;65202;52.520;10.528;2023-04-22T05:58:06;100490.56;;;13.69
76381;BMP280;65202;52.520;10.528;2023-04-22T06:00:33;100494.66;;;14.26
76381;BMP280;65202;52.520;10.528;2023-04-22T06:03:00;100486.81;;;13.86
76381;BMP280;65202;52.520;10.528;2023-04-22T06:05:28;100479.34;;;14.87
76381;BMP280;65202;52.520;10.528;2023-04-22T06:07:55;100469.72;;;15.45
76381;BMP280;65202;52.520;10.528;2023-04-22T06:10:22;100478.44;;;15.60
76381;BMP280;65202;52.520;10.528;2023-04-22T06:12:49;100475.28;;;16.14
76381;BMP280;65202;52.520;10.528;2023-04-22T06:15:17;100472.56;;;15.60
76381;BMP280;65202;52.520;10.528;2023-04-22T06:17:44;100464.50;;;15.77
76381;BMP280;65202;52.520;10.528;2023-04-22T06:20:11;100478.69;;;16.18
76381;BMP280;65202;52.520;10.528;2023-04-22T06:22:39;100473.66;;;15.74
76381;BMP280;65202;52.520;10.528;2023-04-22T06:25:06;100481.25;;;15.74
76381;BMP280;65202;52.520;10.528;2023-04-22T06:27:34;100477.72;;;15.64
76381;BMP280;65202;52.520;10.528;2023-04-22T06:30:01;100477.25;;;15.42
76381;BMP280;65202;52.520;10.528;2023-04-22T06:32:28;100482.78;;;15.26
76381;BMP280;65202;52.520;10.528;2023-04-22T06:34:56;100480.06;;;15.57
76381;BMP280;65202;52.520;10.528;2023-04-22T06:37:23;100487.75;;;15.21
76381;BMP280;65202;52.520;10.528;2023-04-22T06:39:50;100487.91;;;16.14
76381;BMP280;65202;52.520;10.528;2023-04-22T06:42:17;100481.34;;;16.25
76381;BMP280;65202;52.520;10.528;2023-04-22T06:44:45;100486.22;;;16.60
76381;BMP280;65202;52.520;10.528;2023-04-22T06:47:12;100486.63;;;16.86
76381;BMP280;65202;52.520;10.528;2023-04-22T06:49:39;100480.94;;;17.02
76381;BMP280;65202;52.520;10.528;2023-04-22T06:52:07;100471.16;;;17.95
76381;BMP280;65202;52.520;10.528;2023-04-22T06:54:35;100472.38;;;16.94
76381;BMP280;65202;52.520;10.528;2023-04-22T06:57:02;100464.53;;;18.07
76381;BMP280;65202;52.520;10.528;2023-04-22T06:59:29;100460.16;;;18.85
76381;BMP280;65202;52.520;10.528;2023-04-22T07:01:56;100462.25;;;18.31
76381;BMP280;65202;52.520;10.528;2023-04-22T07:04:23;100453.53;;;18.07
76381;BMP280;65202;52.520;10.528;2023-04-22T07:06:53;100457.13;;;18.24
76381;BMP280;65202;52.520;10.528;2023-04-22T07:09:21;100453.59;;;18.10
76381;BMP280;65202;52.520;10.528;2023-04-22T07:11:48;100444.28;;;18.10
76381;BMP280;65202;52.520;10.528;2023-04-22T07:14:15;100447.50;;;17.91
76381;BMP280;65202;52.520;10.528;2023-04-22T07:16:42;100446.25;;;18.36
76381;BMP280;65202;52.520;10.528;2023-04-22T07:19:10;100435.63;;;18.85
76381;BMP280;65202;52.520;10.528;2023-04-22T07:21:37;100436.41;;;18.77
76381;BMP280;65202;52.520;10.528;2023-04-22T07:24:06;100437.16;;;18.62
76381;BMP280;65202;52.520;10.528;2023-04-22T07:26:39;100432.28;;;18.92
76381;BMP280;65202;52.520;10.528;2023-04-22T07:29:09;100429.97;;;19.29
76381;BMP280;65202;52.520;10.528;2023-04-22T07:31:38;100431.66;;;19.29
76381;BMP280;65202;52.520;10.528;2023-04-22T07:34:05;100430.22;;;20.05
76381;BMP280;65202;52.520;10.528;2023-04-22T07:36:34;100430.16;;;20.94
76381;BMP280;65202;52.520;10.528;2023-04-22T07:39:04;100428.50;;;20.65
76381;BMP280;65202;52.520;10.528;2023-04-22T07:41:32;100432.69;;;21.02
76381;BMP280;65202;52.520;10.528;2023-04-22T07:43:59;100425.69;;;21.62
76381;BMP280;65202;52.520;10.528;2023-04-22T07:46:26;100428.56;;;22.38
76381;BMP280;65202;52.520;10.528;2023-04-22T07:48:54;100419.59;;;22.87
76381;BMP280;65202;52.520;10.528;2023-04-22T07:51:21;100413.31;;;24.38
76381;BMP280;65202;52.520;10.528;2023-04-22T07:53:49;100410.72;;;23.22
76381;BMP280;65202;52.520;10.528;2023-04-22T07:56:16;100397.13;;;22.39
76381;BMP280;65202;52.520;10.528;2023-04-22T07:58:44;100392.78;;;22.50
76381;BMP280;65202;52.520;10.528;2023-04-22T08:01:11;100402.56;;;21.93
76381;BMP280;65202;52.520;10.528;2023-04-22T08:03:39;100412.25;;;21.18
76381;BMP280;65202;52.520;10.528;2023-04-22T08:06:06;100426.44;;;21.76
76381;BMP280;65202;52.520;10.528;2023-04-22T08:08:34;100403.22;;;23.76
76381;BMP280;65202;52.520;10.528;2023-04-22T08:11:01;100413.53;;;22.97
76381;BMP280;65202;52.520;10.528;2023-04-22T08:13:28;100406.72;;;24.23
76381;BMP280;65202;52.520;10.528;2023-04-22T08:15:55;100403.78;;;23.95
76381;BMP280;65202;52.520;10.528;2023-04-22T08:18:23;100407.19;;;23.34
76381;BMP280;65202;52.520;10.528;2023-04-22T08:20:50;100399.31;;;24.07
76381;BMP280;65202;52.520;10.528;2023-04-22T08:23:17;100397.88;;;23.90
76381;BMP280;65202;52.520;10.528;2023-04-22T08:25:44;100401.56;;;23.72
76381;BMP280;65202;52.520;10.528;2023-04-22T08:28:12;100389.44;;;24.85
76381;BMP280;65202;52.520;10.528;2023-04-22T08:30:39;100399.03;;;24.26
76381;BMP280;65202;52.520;10.528;2023-04-22T08:33:06;100388.41;;;24.50
76381;BMP280;65202;52.520;10.528;2023-04-22T08:35:34;100385.28;;;25.22
76381;BMP280;65202;52.520;10.528;2023-04-22T08:38:02;100380.25;;;25.19
76381;BMP280;65202;52.520;10.528;2023-04-22T08:40:29;100380.59;;;25.00
76381;BMP280;65202;52.520;10.528;2023-04-22T08:42:56;100384.88;;;24.99
76381;BMP280;65202;52.520;10.528;2023-04-22T08:45:24;100382.44;;;23.97
76381;BMP280;65202;52.520;10.528;2023-04-22T08:47:52;100370.31;;;25.03
76381;BMP280;65202;52.520;10.528;2023-04-22T08:50:20;100364.91;;;25.93
76381;BMP280;65202;52.520;10.528;2023-04-22T08:52:51;100374.00;;;24.88
76381;BMP280;65202;52.520;10.528;2023-04-22T08:55:18;100375.09;;;23.78
76381;BMP280;65202;52.520;10.528;2023-04-22T08:57:46;100371.38;;;25.35
76381;BMP280;65202;52.520;10.528;2023-04-22T09:00:14;100367.28;;;24.36
76381;BMP280;65202;52.520;10.528;2023-04-22T09:02:43;100369.94;;;25.61
76381;BMP280;65202;52.520;10.528;2023-04-22T09:05:12;100359.72;;;25.21
76381;BMP280;65202;52.520;10.528;2023-04-22T09:07:41;100367.66;;;24.64
76381;BMP280;65202;52.520;10.528;2023-04-22T09:10:08;100356.91;;;24.90
76381;BMP280;65202;52.520;10.528;2023-04-22T09:12:39;100356.88;;;25.34
76381;BMP280;65202;52.520;10.528;2023-04-22T09:15:07;100348.75;;;25.90
76381;BMP280;65202;52.520;10.528;2023-04-22T09:17:36;100364.22;;;24.16
76381;BMP280;65202;52.520;10.528;2023-04-22T09:20:06;100352.06;;;25.95
76381;BMP280;65202;52.520;10.528;2023-04-22T09:22:44;100357.28;;;25.15
76381;BMP280;65202;52.520;10.528;2023-04-22T09:25:17;100344.25;;;26.32
76381;BMP280;65202;52.520;10.528;2023-04-22T09:27:54;100336.81;;;27.44
76381;BMP280;65202;52.520;10.528;2023-04-22T09:30:32;100335.84;;;27.76
76381;BMP280;65202;52.520;10.528;2023-04-22T09:33:05;100336.31;;;27.61
76381;BMP280;65202;52.520;10.528;2023-04-22T09:35:38;100330.78;;;26.24
76381;BMP280;65202;52.520;10.528;2023-04-22T09:38:11;100332.69;;;26.80
76381;BMP280;65202;52.520;10.528;2023-04-22T09:40:43;100330.44;;;26.05
76381;BMP280;65202;52.520;10.528;2023-04-22T09:43:17;100338.03;;;24.94
76381;BMP280;65202;52.520;10.528;2023-04-22T09:45:51;100334.19;;;24.29
76381;BMP280;65202;52.520;10.528;2023-04-22T09:48:19;100333.59;;;25.04
76381;BMP280;65202;52.520;10.528;2023-04-22T09:50:49;100329.88;;;25.18
76381;BMP280;65202;52.520;10.528;2023-04-22T09:53:19;100316.88;;;26.33
76381;BMP280;65202;52.520;10.528;2023-04-22T09:55:52;100325.06;;;25.44
76381;BMP280;65202;52.520;10.528;2023-04-22T09:58:24;100327.38;;;25.17
76381;BMP280;65202;52.520;10.528;2023-04-22T10:00:56;100326.56;;;25.51
76381;BMP280;65202;52.520;10.528;2023-04-22T10:03:30;100321.91;;;25.68
76381;BMP280;65202;52.520;10.528;2023-04-22T10:06:09;100317.06;;;26.25
76381;BMP280;65202;52.520;10.528;2023-04-22T10:08:36;100315.59;;;25.08
76381;BMP280;65202;52.520;10.528;2023-04-22T10:11:04;100312.25;;;25.42
76381;BMP280;65202;52.520;10.528;2023-04-22T10:13:31;100303.09;;;26.04
76381;BMP280;65202;52.520;10.528;2023-04-22T10:15:59;100300.75;;;25.95
76381;BMP280;65202;52.520;10.528;2023-04-22T10:18:27;100307.16;;;25.41
76381;BMP280;65202;52.520;10.528;2023-04-22T10:20:56;100299.94;;;25.58
76381;BMP280;65202;52.520;10.528;2023-04-22T10:23:25;100287.16;;;25.93
76381;BMP280;65202;52.520;10.528;2023-04-22T10:25:57;100293.59;;;25.38
76381;BMP280;65202;52.520;10.528;2023-04-22T10:28:27;100295.84;;;24.73
76381;BMP280;65202;52.520;10.528;2023-04-22T10:30:55;100289.56;;;25.64
76381;BMP280;65202;52.520;10.528;2023-04-22T10:36:16;100278.56;;;25.21
76381;BMP280;65202;52.520;10.528;2023-04-22T10:41:28;100268.94;;;25.32
76381;BMP280;65202;52.520;10.528;2023-04-22T10:43:59;100261.19;;;25.70
76381;BMP280;65202;52.520;10.528;2023-04-22T10:49:08;100269.09;;;24.85
76381;BMP280;65202;52.520;10.528;2023-04-22T10:51:45;100264.84;;;24.84
76381;BMP280;65202;52.520;10.528;2023-04-22T10:57:14;100261.97;;;24.99
76381;BMP280;65202;52.520;10.528;2023-04-22T10:59:52;100257.63;;;25.03
76381;BMP280;65202;52.520;10.528;2023-04-22T11:02:22;100262.13;;;24.92
76381;BMP280;65202;52.520;10.528;2023-04-22T11:04:50;100254.81;;;25.15
76381;BMP280;65202;52.520;10.528;2023-04-22T11:17:39;100241.53;;;25.36
76381;BMP280;65202;52.520;10.528;2023-04-22T11:20:10;100227.28;;;25.24
76381;BMP280;65202;52.520;10.528;2023-04-22T11:22:42;100228.03;;;25.62
76381;BMP280;65202;52.520;10.528;2023-04-22T11:25:10;100233.81;;;24.99
76381;BMP280;65202;52.520;10.528;2023-04-22T11:27:38;100223.91;;;25.22
76381;BMP280;65202;52.520;10.528;2023-04-22T11:30:09;100223.16;;;25.17
76381;BMP280;65202;52.520;10.528;2023-04-22T11:32:40;100215.13;;;25.67
76381;BMP280;65202;52.520;10.528;2023-04-22T11:35:15;100218.56;;;25.31
76381;BMP280;65202;52.520;10.528;2023-04-22T11:40:15;100206.09;;;25.16
76381;BMP280;65202;52.520;10.528;2023-04-22T11:42:58;100213.75;;;25.54
76381;BMP280;65202;52.520;10.528;2023-04-22T11:45:29;100196.97;;;25.41
76381;BMP280;65202;52.520;10.528;2023-04-22T11:47:57;100190.09;;;25.43
76381;BMP280;65202;52.520;10.528;2023-04-22T11:50:30;100197.41;;;25.23
76381;BMP280;65202;52.520;10.528;2023-04-22T11:53:04;100198.88;;;25.68
76381;BMP280;65202;52.520;10.528;2023-04-22T11:55:39;100193.66;;;25.38
76381;BMP280;65202;52.520;10.528;2023-04-22T12:03:26;100189.72;;;25.23
76381;BMP280;65202;52.520;10.528;2023-04-22T12:05:56;100180.31;;;25.25
76381;BMP280;65202;52.520;10.528;2023-04-22T12:08:35;100182.06;;;25.56
76381;BMP280;65202;52.520;10.528;2023-04-22T12:11:07;100176.56;;;25.71
76381;BMP280;65202;52.520;10.528;2023-04-22T12:16:11;100168.09;;;25.68
76381;BMP280;65202;52.520;10.528;2023-04-22T12:18:41;100178.59;;;25.24
76381;BMP280;65202;52.520;10.528;2023-04-22T12:21:22;100173.34;;;25.63
76381;BMP280;65202;52.520;10.528;2023-04-22T12:24:01;100162.63;;;25.48
76381;BMP280;65202;52.520;10.528;2023-04-22T12:26:33;100161.94;;;25.07
76381;BMP280;65202;52.520;10.528;2023-04-22T12:29:01;100162.09;;;25.36
76381;BMP280;65202;52.520;10.528;2023-04-22T12:31:29;100172.59;;;24.87
76381;BMP280;65202;52.520;10.528;2023-04-22T12:33:56;100153.31;;;25.11
76381;BMP280;65202;52.520;10.528;2023-04-22T12:36:23;100145.91;;;25.35
76381;BMP280;65202;52.520;10.528;2023-04-22T12:38:52;100151.34;;;25.55
76381;BMP280;65202;52.520;10.528;2023-04-22T12:41:19;100139.84;;;25.38
76381;BMP280;65202;52.520;10.528;2023-04-22T12:43:46;100150.91;;;25.03
76381;BMP280;65202;52.520;10.528;2023-04-22T12:46:13;100147.91;;;24.85
76381;BMP280;65202;52.520;10.528;2023-04-22T12:48:41;100156.56;;;24.42
76381;BMP280;65202;52.520;10.528;2023-04-22T12:51:08;100147.72;;;24.58
76381;BMP280;65202;52.520;10.528;2023-04-22T12:53:35;100143.34;;;24.61
76381;BMP280;65202;52.520;10.528;2023-04-22T12:56:03;100149.59;;;24.48
76381;BMP280;65202;52.520;10.528;2023-04-22T12:58:30;100131.56;;;24.12
76381;BMP280;65202;52.520;10.528;2023-04-22T13:00:57;100138.03;;;24.29
76381;BMP280;65202;52.520;10.528;2023-04-22T13:03:24;100140.59;;;23.87
76381;BMP280;65202;52.520;10.528;2023-04-22T13:05:52;100138.63;;;23.54
76381;BMP280;65202;52.520;10.528;2023-04-22T13:08:21;100137.34;;;23.79
76381;BMP280;65202;52.520;10.528;2023-04-22T13:10:48;100138.41;;;24.12
76381;BMP280;65202;52.520;10.528;2023-04-22T13:13:15;100128.34;;;24.04
76381;BMP280;65202;52.520;10.528;2023-04-22T13:15:46;100128.94;;;24.16
76381;BMP280;65202;52.520;10.528;2023-04-22T13:18:20;100116.13;;;24.18
76381;BMP280;65202;52.520;10.528;2023-04-22T13:20:48;100129.47;;;24.32
76381;BMP280;65202;52.520;10.528;2023-04-22T13:23:17;100121.88;;;24.29
76381;BMP280;65202;52.520;10.528;2023-04-22T13:25:48;100140.13;;;24.11
76381;BMP280;65202;52.520;10.528;2023-04-22T13:28:16;100126.59;;;24.05
76381;BMP280;65202;52.520;10.528;2023-04-22T13:30:43;100116.19;;;24.15
76381;BMP280;65202;52.520;10.528;2023-04-22T13:33:10;100113.94;;;24.41
76381;BMP280;65202;52.520;10.528;2023-04-22T13:35:37;100116.19;;;24.13
76381;BMP280;65202;52.520;10.528;2023-04-22T13:38:05;100105.97;;;24.15
76381;BMP280;65202;52.520;10.528;2023-04-22T13:40:32;100112.06;;;24.08
76381;BMP280;65202;52.520;10.528;2023-04-22T13:42:59;100121.88;;;23.87
76381;BMP280;65202;52.520;10.528;2023-04-22T13:45:26;100110.66;;;23.92
76381;BMP280;65202;52.520;10.528;2023-04-22T13:47:53;100112.44;;;23.90
76381;BMP280;65202;52.520;10.528;2023-04-22T13:50:22;100100.00;;;23.69
76381;BMP280;65202;52.520;10.528;2023-04-22T13:52:49;100122.34;;;23.58
76381;BMP280;65202;52.520;10.528;2023-04-22T13:55:17;100091.56;;;23.67
76381;BMP280;65202;52.520;10.528;2023-04-22T13:57:44;100103.50;;;23.65
76381;BMP280;65202;52.520;10.528;2023-04-22T14:00:12;100104.38;;;23.64
76381;BMP280;65202;52.520;10.528;2023-04-22T14:02:39;100096.28;;;23.42
76381;BMP280;65202;52.520;10.528;2023-04-22T14:05:07;100087.63;;;23.50
76381;BMP280;65202;52.520;10.528;2023-04-22T14:07:36;100081.81;;;23.41
76381;BMP280;65202;52.520;10.528;2023-04-22T14:10:03;100088.28;;;23.59
76381;BMP280;65202;52.520;10.528;2023-04-22T14:12:35;100085.06;;;23.50
76381;BMP280;65202;52.520;10.528;2023-04-22T14:15:03;100081.47;;;23.58
76381;BMP280;65202;52.520;10.528;2023-04-22T14:17:30;100088.84;;;23.28
76381;BMP280;65202;52.520;10.528;2023-04-22T14:19:58;100082.88;;;23.29
76381;BMP280;65202;52.520;10.528;2023-04-22T14:22:25;100080.44;;;23.23